createdAt,value
2023-11-14T00:01:36.211Z,10.92
2023-11-14T00:04:39.426Z,10.99
2023-11-14T00:07:41.355Z,10.87
2023-11-14T00:10:43.270Z,10.69
2023-11-14T00:13:46.764Z,10.56
2023-11-14T00:16:50.159Z,10.95
2023-11-14T00:19:52.129Z,10.77
2023-11-14T00:22:54.013Z,10.72
2023-11-14T00:25:55.772Z,11.06
2023-11-14T00:28:57.559Z,11.31
2023-11-14T00:32:00.743Z,11.29
2023-11-14T00:35:02.921Z,11.17
2023-11-14T00:38:05.447Z,11.17
2023-11-14T00:41:07.416Z,11.12
2023-11-14T00:44:09.147Z,10.72
2023-11-14T00:47:13.266Z,10.92
2023-11-14T00:50:15.462Z,11.05
2023-11-14T00:53:18.458Z,10.93
2023-11-14T00:56:20.223Z,10.90
2023-11-14T00:59:21.929Z,10.72
2023-11-14T01:02:25.123Z,10.72
2023-11-14T01:05:27.709Z,10.42
2023-11-14T01:08:29.479Z,10.42
2023-11-14T01:11:32.253Z,10.62
2023-11-14T01:14:34.197Z,10.69
2023-11-14T01:17:38.313Z,10.91
2023-11-14T01:20:40.145Z,11.24
2023-11-14T01:23:42.723Z,10.71
2023-11-14T01:26:44.604Z,10.56
2023-11-14T01:29:46.826Z,10.50
2023-11-14T01:32:50.019Z,10.47
2023-11-14T01:35:51.817Z,10.50
2023-11-14T01:38:53.679Z,10.53
2023-11-14T01:41:55.833Z,10.58
2023-11-14T01:44:57.844Z,10.49
2023-11-14T01:48:01.042Z,10.62
2023-11-14T01:51:03.570Z,11.01
2023-11-14T01:54:07.168Z,11.04
2023-11-14T01:57:12.259Z,10.98
2023-11-14T02:00:16.148Z,10.72
2023-11-14T02:03:19.728Z,10.76
2023-11-14T02:06:22.181Z,10.68
2023-11-14T02:09:23.864Z,10.39
2023-11-14T02:12:26.820Z,10.42
2023-11-14T02:15:28.640Z,10.35
2023-11-14T02:18:32.629Z,10.27
2023-11-14T02:21:34.437Z,10.41
2023-11-14T02:24:40.035Z,10.35
2023-11-14T02:27:43.138Z,10.64
2023-11-14T02:30:44.901Z,10.61
2023-11-14T02:33:47.427Z,10.55
2023-11-14T02:36:49.166Z,10.49
2023-11-14T02:39:50.957Z,10.49
2023-11-14T02:42:55.042Z,10.34
2023-11-14T02:45:58.783Z,10.48
2023-11-14T02:49:21.958Z,10.56
2023-11-14T02:52:24.444Z,10.45
2023-11-14T02:55:26.301Z,10.55
2023-11-14T02:58:29.761Z,10.80
2023-11-14T03:01:32.974Z,10.78
2023-11-14T03:04:34.869Z,10.61
2023-11-14T03:07:37.169Z,10.59
2023-11-14T03:10:39.431Z,10.49
2023-11-14T03:13:42.873Z,10.65
2023-11-14T03:16:45.239Z,10.70
2023-11-14T03:19:48.506Z,10.55
2023-11-14T03:22:51.205Z,10.78
2023-11-14T03:25:52.950Z,10.75
2023-11-14T03:28:56.028Z,10.58
2023-11-14T03:32:00.467Z,10.70
2023-11-14T03:35:03.082Z,10.88
2023-11-14T03:38:04.947Z,10.84
2023-11-14T03:41:07.051Z,10.66
2023-11-14T03:44:10.198Z,10.49
2023-11-14T03:47:12.253Z,10.26
2023-11-14T03:50:13.995Z,10.54
2023-11-14T03:53:15.901Z,10.54
2023-11-14T03:56:17.784Z,10.46
2023-11-14T03:59:21.402Z,10.64
2023-11-14T04:02:23.105Z,10.44
2023-11-14T04:05:25.077Z,10.37
2023-11-14T04:08:26.855Z,10.26
2023-11-14T04:11:28.639Z,10.33
2023-11-14T04:14:31.743Z,10.41
2023-11-14T04:17:33.784Z,10.33
2023-11-14T04:20:35.595Z,10.59
2023-11-14T04:23:37.501Z,10.58
2023-11-14T04:26:39.379Z,10.73
2023-11-14T04:29:42.561Z,10.71
2023-11-14T04:32:44.448Z,10.66
2023-11-14T04:35:46.445Z,10.67
2023-11-14T04:38:50.154Z,10.69
2023-11-14T04:41:52.224Z,10.71
2023-11-14T04:44:55.376Z,10.72
2023-11-14T04:47:59.072Z,10.71
2023-11-14T04:51:00.874Z,10.78
2023-11-14T04:54:02.700Z,10.77
2023-11-14T04:57:05.023Z,10.63
2023-11-14T05:00:10.053Z,10.61
2023-11-14T05:03:11.997Z,10.43
2023-11-14T05:06:13.925Z,10.40
2023-11-14T05:09:16.800Z,10.44
2023-11-14T05:12:18.659Z,10.39
2023-11-14T05:15:22.144Z,10.31
2023-11-14T05:18:24.014Z,10.23
2023-11-14T05:21:25.927Z,10.11
2023-11-14T05:24:27.786Z,10.04
2023-11-14T05:27:29.797Z,10.02
2023-11-14T05:30:33.055Z,9.94
2023-11-14T05:33:34.775Z,9.95
2023-11-14T05:36:37.352Z,9.91
2023-11-14T05:39:39.175Z,9.90
2023-11-14T05:42:41.124Z,9.91
2023-11-14T05:45:46.675Z,9.89
2023-11-14T05:48:48.493Z,9.90
2023-11-14T05:51:50.554Z,9.92
2023-11-14T05:54:52.386Z,10.02
2023-11-14T05:57:54.526Z,10.08
2023-11-14T06:00:57.718Z,10.06
2023-11-14T06:03:59.649Z,10.10
2023-11-14T06:07:01.685Z,10.14
2023-11-14T06:10:04.584Z,10.12
2023-11-14T06:13:06.428Z,10.18
2023-11-14T06:16:09.553Z,10.15
2023-11-14T06:19:12.428Z,10.19
2023-11-14T06:22:14.254Z,10.27
2023-11-14T06:25:16.247Z,10.19
2023-11-14T06:28:17.963Z,10.27
2023-11-14T06:31:21.068Z,10.26
2023-11-14T06:34:22.838Z,10.33
2023-11-14T06:37:25.050Z,10.39
2023-11-14T06:40:26.840Z,10.35
2023-11-14T06:43:28.614Z,10.41
2023-11-14T06:46:31.848Z,10.34
2023-11-14T06:49:33.730Z,10.42
2023-11-14T06:52:35.549Z,10.45
2023-11-14T06:55:37.484Z,10.41
2023-11-14T06:58:41.425Z,10.43
2023-11-14T07:01:49.600Z,10.46
2023-11-14T07:04:51.570Z,10.47
2023-11-14T07:07:55.941Z,10.51
2023-11-14T07:10:59.016Z,10.53
2023-11-14T07:14:00.881Z,10.52
2023-11-14T07:17:04.903Z,10.56
2023-11-14T07:20:11.897Z,10.60
2023-11-14T07:23:16.941Z,10.60
2023-11-14T07:26:19.930Z,10.59
2023-11-14T07:29:22.106Z,10.59
2023-11-14T07:32:25.224Z,10.61
2023-11-14T07:35:27.807Z,10.68
2023-11-14T07:38:29.582Z,10.74
2023-11-14T07:41:31.919Z,10.78
2023-11-14T07:44:33.687Z,10.82
2023-11-14T07:47:36.870Z,10.88
2023-11-14T07:50:38.651Z,10.88
2023-11-14T07:53:40.375Z,10.97
2023-11-14T07:56:42.311Z,11.08
2023-11-14T07:59:44.162Z,11.12
2023-11-14T08:02:47.600Z,11.19
2023-11-14T08:05:52.521Z,11.49
2023-11-14T08:08:55.015Z,11.82
2023-11-14T08:11:56.944Z,12.05
2023-11-14T08:14:59.947Z,11.98
2023-11-14T08:18:03.210Z,12.07
2023-11-14T08:21:05.559Z,11.97
2023-11-14T08:24:07.841Z,12.13
2023-11-14T08:27:09.867Z,12.08
2023-11-14T08:30:13.791Z,12.15
2023-11-14T08:33:19.084Z,12.15
2023-11-14T08:36:21.124Z,12.10
2023-11-14T08:39:23.839Z,12.13
2023-11-14T08:42:26.488Z,12.14
2023-11-14T08:45:30.791Z,12.27
2023-11-14T08:48:34.047Z,12.34
2023-11-14T08:51:36.416Z,12.22
2023-11-14T08:54:39.221Z,12.10
2023-11-14T08:57:41.096Z,11.98
2023-11-14T09:00:44.293Z,11.96
2023-11-14T09:03:47.448Z,11.85
2023-11-14T09:06:52.044Z,11.86
2023-11-14T09:09:54.691Z,11.85
2023-11-14T09:12:57.758Z,11.82
2023-11-14T09:15:59.577Z,11.91
2023-11-14T09:19:02.966Z,11.96
2023-11-14T09:22:06.173Z,11.93
2023-11-14T09:25:09.596Z,11.96
2023-11-14T09:28:11.610Z,11.95
2023-11-14T09:31:13.954Z,11.94
2023-11-14T09:34:17.357Z,11.88
2023-11-14T09:37:19.432Z,11.87
2023-11-14T09:40:22.658Z,11.89
2023-11-14T09:43:24.914Z,11.90
2023-11-14T09:46:27.040Z,11.92
2023-11-14T09:49:31.002Z,11.90
2023-11-14T09:52:33.151Z,11.88
2023-11-14T09:55:34.907Z,11.86
2023-11-14T09:58:36.698Z,11.79
2023-11-14T10:01:40.474Z,11.73
2023-11-14T10:04:43.835Z,11.73
2023-11-14T10:07:46.754Z,11.70
2023-11-14T10:11:04.807Z,11.68
2023-11-14T10:14:07.400Z,11.69
2023-11-14T10:17:09.406Z,11.69
2023-11-14T10:20:13.760Z,11.71
2023-11-14T10:23:24.417Z,11.72
2023-11-14T10:26:29.884Z,11.70
2023-11-14T10:29:31.789Z,11.64
2023-11-14T10:32:33.699Z,11.63
2023-11-14T10:35:37.387Z,11.64
2023-11-14T10:38:39.317Z,11.62
2023-11-14T10:41:41.254Z,11.65
2023-11-14T10:44:57.858Z,11.60
2023-11-14T10:47:59.613Z,11.71
2023-11-14T10:51:03.369Z,11.69
2023-11-14T10:54:07.632Z,11.70
2023-11-14T10:57:17.953Z,11.68
2023-11-14T11:00:27.849Z,11.72
2023-11-14T11:03:30.015Z,11.74
2023-11-14T11:06:33.373Z,11.77
2023-11-14T11:09:35.617Z,11.77
2023-11-14T11:12:40.580Z,11.80
2023-11-14T11:15:46.557Z,11.79
2023-11-14T11:18:49.215Z,11.82
2023-11-14T11:22:04.284Z,11.85
2023-11-14T11:25:28.224Z,11.87
2023-11-14T11:28:34.829Z,11.89
2023-11-14T11:31:37.756Z,11.89
2023-11-14T11:34:39.522Z,11.93
2023-11-14T11:37:47.499Z,11.99
2023-11-14T11:41:13.302Z,12.08
2023-11-14T11:44:17.873Z,12.15
2023-11-14T11:47:32.509Z,12.20
2023-11-14T11:50:35.687Z,12.21
2023-11-14T11:53:41.058Z,12.23
2023-11-14T11:56:42.893Z,12.26
2023-11-14T12:00:20.344Z,12.34
2023-11-14T12:03:22.395Z,12.32
2023-11-14T12:06:25.838Z,12.34
2023-11-14T12:09:29.875Z,12.38
2023-11-14T12:12:38.711Z,12.39
2023-11-14T12:15:43.854Z,12.42
2023-11-14T12:18:45.645Z,12.44
2023-11-14T12:21:47.714Z,12.54
2023-11-14T12:24:51.434Z,12.52
2023-11-14T12:27:59.445Z,12.53
2023-11-14T12:31:02.131Z,12.56
2023-11-14T12:34:05.773Z,12.58
2023-11-14T12:37:09.288Z,12.63
2023-11-14T12:40:13.507Z,12.70
2023-11-14T12:43:16.344Z,12.80
2023-11-14T12:46:28.527Z,12.74
2023-11-14T12:49:32.654Z,12.80
2023-11-14T12:52:37.915Z,12.80
2023-11-14T12:55:41.785Z,12.80
2023-11-14T12:58:43.575Z,12.83
2023-11-14T13:01:47.207Z,12.90
2023-11-14T13:04:50.464Z,12.81
2023-11-14T13:07:56.802Z,12.80
2023-11-14T13:10:59.897Z,12.70
2023-11-14T13:14:03.035Z,12.67
2023-11-14T13:17:05.686Z,12.70
2023-11-14T13:20:09.508Z,12.79
2023-11-14T13:23:12.292Z,12.74
2023-11-14T13:26:15.460Z,12.72
2023-11-14T13:29:17.522Z,12.72
2023-11-14T13:32:19.954Z,12.76
2023-11-14T13:35:21.804Z,12.77
2023-11-14T13:38:25.830Z,12.75
2023-11-14T13:41:30.562Z,12.75
2023-11-14T13:44:32.252Z,12.65
2023-11-14T13:47:34.141Z,12.69
2023-11-14T13:50:35.943Z,12.84
2023-11-14T13:53:37.762Z,12.61
2023-11-14T13:56:42.828Z,12.62
2023-11-14T13:59:48.511Z,12.79
2023-11-14T14:02:51.299Z,12.76
2023-11-14T14:05:53.749Z,12.78
2023-11-14T14:08:55.567Z,12.78
2023-11-14T14:11:58.834Z,12.71
2023-11-14T14:15:01.267Z,12.71
2023-11-14T14:18:04.106Z,12.72
2023-11-14T14:21:06.003Z,12.64
2023-11-14T14:24:10.056Z,12.60
2023-11-14T14:27:13.395Z,12.76
2023-11-14T14:30:18.704Z,12.86
2023-11-14T14:33:20.468Z,12.91
2023-11-14T14:36:23.048Z,12.75
2023-11-14T14:39:25.069Z,12.64
2023-11-14T14:42:28.128Z,12.59
2023-11-14T14:45:30.016Z,12.59
2023-11-14T14:48:33.520Z,12.60
2023-11-14T14:51:35.218Z,12.77
2023-11-14T14:54:38.017Z,12.66
2023-11-14T14:57:41.254Z,12.70
2023-11-14T15:00:44.744Z,12.60
2023-11-14T15:03:46.715Z,12.57
2023-11-14T15:06:48.841Z,12.56
2023-11-14T15:09:53.217Z,12.48
2023-11-14T15:12:56.331Z,12.43
2023-11-14T15:15:59.962Z,12.35
2023-11-14T15:19:04.646Z,12.30
2023-11-14T15:22:06.889Z,12.30
2023-11-14T15:25:10.728Z,12.29
2023-11-14T15:28:13.996Z,12.22
2023-11-14T15:31:15.947Z,12.23
2023-11-14T15:34:17.710Z,12.23
2023-11-14T15:37:19.498Z,12.22
2023-11-14T15:40:21.288Z,12.20
2023-11-14T15:43:25.276Z,12.21
2023-11-14T15:46:27.147Z,12.19
2023-11-14T15:49:30.985Z,12.21
2023-11-14T15:52:32.971Z,12.20
2023-11-14T15:55:34.642Z,12.18
2023-11-14T15:58:38.881Z,12.19
2023-11-14T16:01:40.609Z,12.17
2023-11-14T16:04:42.309Z,12.13
2023-11-14T16:07:44.002Z,12.12
2023-11-14T16:10:45.927Z,12.06
2023-11-14T16:13:49.014Z,12.04
2023-11-14T16:16:50.891Z,12.01
2023-11-14T16:19:52.715Z,11.96
2023-11-14T16:22:54.742Z,11.93
2023-11-14T16:25:56.658Z,11.91
2023-11-14T16:28:59.949Z,11.82
2023-11-14T16:32:07.435Z,11.80
2023-11-14T16:35:09.637Z,11.77
2023-11-14T16:38:11.575Z,11.71
2023-11-14T16:41:13.433Z,11.65
2023-11-14T16:44:16.618Z,11.60
2023-11-14T16:47:18.446Z,11.57
2023-11-14T16:50:20.258Z,11.49
2023-11-14T16:53:22.204Z,11.26
2023-11-14T16:56:24.113Z,11.11
2023-11-14T16:59:27.254Z,10.97
2023-11-14T17:02:29.175Z,10.90
2023-11-14T17:05:31.468Z,10.91
2023-11-14T17:08:33.389Z,10.78
2023-11-14T17:11:35.234Z,10.72
2023-11-14T17:14:38.436Z,10.69
2023-11-14T17:17:40.341Z,10.66
2023-11-14T17:20:42.470Z,10.58
2023-11-14T17:23:44.541Z,10.54
2023-11-14T17:26:49.131Z,10.50
2023-11-14T17:29:53.581Z,10.46
2023-11-14T17:32:55.436Z,10.33
2023-11-14T17:35:57.273Z,10.24
2023-11-14T17:38:59.033Z,10.20
2023-11-14T17:42:03.951Z,10.20
2023-11-14T17:45:07.862Z,10.17
2023-11-14T17:48:10.169Z,10.12
2023-11-14T17:51:17.509Z,10.16
2023-11-14T17:54:24.541Z,10.14
2023-11-14T17:57:26.677Z,10.12
2023-11-14T18:00:29.959Z,10.14
2023-11-14T18:03:32.644Z,10.10
2023-11-14T18:06:34.667Z,10.12
2023-11-14T18:09:37.537Z,10.12
2023-11-14T18:12:39.430Z,10.12
2023-11-14T18:15:44.044Z,10.16
2023-11-14T18:18:49.834Z,10.17
2023-11-14T18:21:51.652Z,10.17
2023-11-14T18:24:53.367Z,10.17
2023-11-14T18:27:56.163Z,10.13
2023-11-14T18:30:59.363Z,10.09
2023-11-14T18:34:01.292Z,10.07
2023-11-14T18:37:03.844Z,10.05
2023-11-14T18:40:06.668Z,9.99
2023-11-14T18:43:08.451Z,9.98
2023-11-14T18:46:11.825Z,10.01
2023-11-14T18:49:14.084Z,9.97
2023-11-14T18:52:15.785Z,9.95
2023-11-14T18:55:17.599Z,9.97
2023-11-14T18:58:19.854Z,9.95
2023-11-14T19:01:23.103Z,9.93
2023-11-14T19:04:25.137Z,9.87
2023-11-14T19:07:27.989Z,9.89
2023-11-14T19:10:30.167Z,9.89
2023-11-14T19:13:32.037Z,9.91
2023-11-14T19:16:35.403Z,9.92
2023-11-14T19:19:37.271Z,9.94
2023-11-14T19:23:34.324Z,9.95
2023-11-14T19:26:06.965Z,9.94
2023-11-14T19:29:08.809Z,9.93
2023-11-14T19:32:12.194Z,9.97
2023-11-14T19:35:15.306Z,9.98
2023-11-14T19:38:17.134Z,9.99
2023-11-14T19:41:19.098Z,9.99
2023-11-14T19:44:22.463Z,9.99
2023-11-14T19:47:25.556Z,10.00
2023-11-14T19:51:52.548Z,10.00
2023-11-14T19:54:57.735Z,10.08
2023-11-14T19:57:59.497Z,10.12
2023-11-14T20:01:01.469Z,10.15
2023-11-14T20:04:05.360Z,10.18
2023-11-14T20:07:08.610Z,10.19
2023-11-14T20:10:10.580Z,10.23
2023-11-14T20:13:13.627Z,10.25
2023-11-14T20:16:15.352Z,10.26
2023-11-14T20:19:19.568Z,10.26
2023-11-14T20:22:22.662Z,10.27
2023-11-14T20:25:24.475Z,10.30
2023-11-14T20:28:30.650Z,10.31
2023-11-14T20:31:32.505Z,10.33
2023-11-14T20:34:34.230Z,10.36
2023-11-14T20:37:37.265Z,10.37
2023-11-14T20:40:38.948Z,10.33
2023-11-14T20:43:40.788Z,10.37
2023-11-14T20:46:42.556Z,10.38
2023-11-14T20:49:44.400Z,10.37
2023-11-14T20:52:47.405Z,10.45
2023-11-14T20:55:49.195Z,10.58
2023-11-14T20:58:51.051Z,10.71
2023-11-14T21:01:53.572Z,10.85
2023-11-14T21:04:55.275Z,11.07
2023-11-14T21:07:58.338Z,11.10
2023-11-14T21:11:00.053Z,11.34
2023-11-14T21:14:01.836Z,11.52
2023-11-14T21:17:03.730Z,11.64
2023-11-14T21:20:06.360Z,11.51
2023-11-14T21:23:19.403Z,11.59
2023-11-14T21:26:21.873Z,11.60
2023-11-14T21:29:23.829Z,11.69
2023-11-14T21:32:31.693Z,11.58
2023-11-14T21:35:33.648Z,11.40
2023-11-14T21:38:37.247Z,11.58
2023-11-14T21:41:39.232Z,11.56
2023-11-14T21:44:41.023Z,11.55
2023-11-14T21:47:43.813Z,11.55
2023-11-14T21:50:46.904Z,11.47
2023-11-14T21:53:50.136Z,11.56
2023-11-14T21:56:52.826Z,11.60
2023-11-14T21:59:54.568Z,11.57
2023-11-14T22:02:56.487Z,11.39
2023-11-14T22:08:16.930Z,11.65
2023-11-14T22:11:19.385Z,11.47
2023-11-14T22:14:21.261Z,11.55
2023-11-14T22:17:25.203Z,11.55
2023-11-14T22:20:27.085Z,11.53
2023-11-14T22:23:31.490Z,11.66
2023-11-14T22:26:33.772Z,11.58
2023-11-14T22:29:35.536Z,11.59
2023-11-14T22:32:37.589Z,11.52
2023-11-14T22:35:39.497Z,11.51
2023-11-14T22:38:48.173Z,11.45
2023-11-14T22:41:53.040Z,11.34
2023-11-14T22:44:57.162Z,11.41
2023-11-14T22:47:59.284Z,11.73
2023-11-14T22:51:01.109Z,11.54
2023-11-14T22:54:04.601Z,11.53
2023-11-14T22:57:06.553Z,11.57
2023-11-14T23:00:23.116Z,11.52
2023-11-14T23:03:28.253Z,11.62
2023-11-14T23:06:30.037Z,11.53
2023-11-14T23:09:36.448Z,11.58
2023-11-14T23:12:38.176Z,11.52
2023-11-14T23:15:40.291Z,11.56
2023-11-14T23:18:42.089Z,11.50
2023-11-14T23:21:49.206Z,11.52
2023-11-14T23:24:58.273Z,11.38
2023-11-14T23:28:00.201Z,11.32
2023-11-14T23:31:02.069Z,11.48
2023-11-14T23:34:04.994Z,11.39
2023-11-14T23:37:06.853Z,11.33
2023-11-14T23:40:11.581Z,11.40
2023-11-14T23:43:13.592Z,11.57
2023-11-14T23:46:15.459Z,11.53
2023-11-14T23:49:17.823Z,11.44
2023-11-14T23:52:19.706Z,11.41
2023-11-14T23:55:22.849Z,11.42
2023-11-14T23:58:24.763Z,11.33
